sensor_id;sensor_type;location;lat;lon;timestamp;P1;durP1;ratioP1;P2;durP2;ratioP2
4053;SDS011;2042;47.956;9.222;2023-12-04T00:01:13;9.80;;;6.70;;
4053;SDS011;2042;47.956;9.222;2023-12-04T00:03:39;15.77;;;7.33;;
4053;SDS011;2042;47.956;9.222;2023-12-04T00:06:05;12.60;;;7.70;;
4053;SDS011;2042;47.956;9.222;2023-12-04T00:08:32;12.97;;;7.30;;
4053;SDS011;2042;47.956;9.222;2023-12-04T00:10:57;13.00;;;6.10;;
4053;SDS011;2042;47.956;9.222;2023-12-04T00:13:23;12.57;;;7.03;;
4053;SDS011;2042;47.956;9.222;2023-12-04T00:15:49;11.40;;;6.90;;
4053;SDS011;2042;47.956;9.222;2023-12-04T00:18:14;13.90;;;8.33;;
4053;SDS011;2042;47.956;9.222;2023-12-04T00:20:40;10.80;;;7.57;;
4053;SDS011;2042;47.956;9.222;2023-12-04T00:23:05;13.37;;;8.50;;
4053;SDS011;2042;47.956;9.222;2023-12-04T00:25:31;12.47;;;7.30;;
4053;SDS011;2042;47.956;9.222;2023-12-04T00:27:57;8.50;;;6.17;;
4053;SDS011;2042;47.956;9.222;2023-12-04T00:30:22;10.30;;;6.73;;
4053;SDS011;2042;47.956;9.222;2023-12-04T00:32:48;10.80;;;6.80;;
4053;SDS011;2042;47.956;9.222;2023-12-04T00:35:14;18.57;;;7.10;;
4053;SDS011;2042;47.956;9.222;2023-12-04T00:37:39;13.57;;;5.80;;
4053;SDS011;2042;47.956;9.222;2023-12-04T00:40:05;9.67;;;6.07;;
4053;SDS011;2042;47.956;9.222;2023-12-04T00:42:33;11.63;;;7.37;;
4053;SDS011;2042;47.956;9.222;2023-12-04T00:44:58;9.60;;;7.20;;
4053;SDS011;2042;47.956;9.222;2023-12-04T00:47:24;10.40;;;5.60;;
4053;SDS011;2042;47.956;9.222;2023-12-04T00:49:50;11.43;;;7.50;;
4053;SDS011;2042;47.956;9.222;2023-12-04T00:52:16;13.93;;;6.70;;
4053;SDS011;2042;47.956;9.222;2023-12-04T00:54:41;13.47;;;6.50;;
4053;SDS011;2042;47.956;9.222;2023-12-04T00:57:08;8.03;;;4.80;;
4053;SDS011;2042;47.956;9.222;2023-12-04T00:59:33;10.93;;;5.97;;
4053;SDS011;2042;47.956;9.222;2023-12-04T01:01:59;12.03;;;6.73;;
4053;SDS011;2042;47.956;9.222;2023-12-04T01:04:25;9.83;;;6.40;;
4053;SDS011;2042;47.956;9.222;2023-12-04T01:06:51;11.13;;;6.43;;
4053;SDS011;2042;47.956;9.222;2023-12-04T01:09:17;16.50;;;10.00;;
4053;SDS011;2042;47.956;9.222;2023-12-04T01:11:49;17.50;;;6.33;;
4053;SDS011;2042;47.956;9.222;2023-12-04T01:14:18;16.40;;;8.30;;
4053;SDS011;2042;47.956;9.222;2023-12-04T01:16:43;16.40;;;7.33;;
4053;SDS011;2042;47.956;9.222;2023-12-04T01:19:09;11.83;;;6.60;;
4053;SDS011;2042;47.956;9.222;2023-12-04T01:21:36;9.73;;;6.10;;
4053;SDS011;2042;47.956;9.222;2023-12-04T01:24:02;11.70;;;7.10;;
4053;SDS011;2042;47.956;9.222;2023-12-04T01:26:28;15.67;;;7.80;;
4053;SDS011;2042;47.956;9.222;2023-12-04T01:28:54;13.10;;;6.20;;
4053;SDS011;2042;47.956;9.222;2023-12-04T01:31:20;13.67;;;7.80;;
4053;SDS011;2042;47.956;9.222;2023-12-04T01:33:46;10.07;;;6.50;;
4053;SDS011;2042;47.956;9.222;2023-12-04T01:36:11;11.20;;;6.87;;
4053;SDS011;2042;47.956;9.222;2023-12-04T01:38:37;16.27;;;7.60;;
4053;SDS011;2042;47.956;9.222;2023-12-04T01:41:03;10.80;;;7.77;;
4053;SDS011;2042;47.956;9.222;2023-12-04T01:43:29;11.00;;;6.27;;
4053;SDS011;2042;47.956;9.222;2023-12-04T01:45:55;12.80;;;7.70;;
4053;SDS011;2042;47.956;9.222;2023-12-04T01:48:21;15.87;;;7.80;;
4053;SDS011;2042;47.956;9.222;2023-12-04T01:50:50;11.33;;;6.60;;
4053;SDS011;2042;47.956;9.222;2023-12-04T01:53:16;14.00;;;7.60;;
4053;SDS011;2042;47.956;9.222;2023-12-04T01:55:42;15.10;;;7.47;;
4053;SDS011;2042;47.956;9.222;2023-12-04T01:58:08;12.70;;;6.77;;
4053;SDS011;2042;47.956;9.222;2023-12-04T02:00:35;14.07;;;6.33;;
4053;SDS011;2042;47.956;9.222;2023-12-04T02:03:02;14.33;;;7.77;;
4053;SDS011;2042;47.956;9.222;2023-12-04T02:05:27;11.20;;;6.70;;
4053;SDS011;2042;47.956;9.222;2023-12-04T02:07:54;12.40;;;6.17;;
4053;SDS011;2042;47.956;9.222;2023-12-04T02:10:23;11.57;;;5.90;;
4053;SDS011;2042;47.956;9.222;2023-12-04T02:12:49;12.43;;;6.20;;
4053;SDS011;2042;47.956;9.222;2023-12-04T02:15:15;10.93;;;5.93;;
4053;SDS011;2042;47.956;9.222;2023-12-04T02:17:42;8.47;;;5.50;;
4053;SDS011;2042;47.956;9.222;2023-12-04T02:20:09;9.80;;;6.80;;
4053;SDS011;2042;47.956;9.222;2023-12-04T02:22:37;14.33;;;7.80;;
4053;SDS011;2042;47.956;9.222;2023-12-04T02:25:03;10.50;;;6.20;;
4053;SDS011;2042;47.956;9.222;2023-12-04T02:27:49;13.80;;;7.80;;
4053;SDS011;2042;47.956;9.222;2023-12-04T02:30:17;10.50;;;5.73;;
4053;SDS011;2042;47.956;9.222;2023-12-04T02:32:45;18.47;;;6.27;;
4053;SDS011;2042;47.956;9.222;2023-12-04T02:35:12;9.03;;;5.40;;
4053;SDS011;2042;47.956;9.222;2023-12-04T02:37:41;15.97;;;7.00;;
4053;SDS011;2042;47.956;9.222;2023-12-04T02:40:07;12.43;;;6.90;;
4053;SDS011;2042;47.956;9.222;2023-12-04T02:42:33;12.77;;;6.60;;
4053;SDS011;2042;47.956;9.222;2023-12-04T02:44:59;15.53;;;7.27;;
4053;SDS011;2042;47.956;9.222;2023-12-04T02:47:24;11.53;;;6.50;;
4053;SDS011;2042;47.956;9.222;2023-12-04T02:49:50;13.80;;;7.00;;
4053;SDS011;2042;47.956;9.222;2023-12-04T02:52:16;12.10;;;6.93;;
4053;SDS011;2042;47.956;9.222;2023-12-04T02:54:42;13.33;;;6.83;;
4053;SDS011;2042;47.956;9.222;2023-12-04T02:57:08;13.13;;;8.27;;
4053;SDS011;2042;47.956;9.222;2023-12-04T02:59:33;13.27;;;6.93;;
4053;SDS011;2042;47.956;9.222;2023-12-04T03:01:59;20.23;;;7.23;;
4053;SDS011;2042;47.956;9.222;2023-12-04T03:04:26;10.30;;;5.50;;
4053;SDS011;2042;47.956;9.222;2023-12-04T03:06:54;14.30;;;9.27;;
4053;SDS011;2042;47.956;9.222;2023-12-04T03:09:19;11.60;;;7.73;;
4053;SDS011;2042;47.956;9.222;2023-12-04T03:11:45;16.73;;;6.70;;
4053;SDS011;2042;47.956;9.222;2023-12-04T03:14:11;17.60;;;8.37;;
4053;SDS011;2042;47.956;9.222;2023-12-04T03:16:36;18.73;;;7.47;;
4053;SDS011;2042;47.956;9.222;2023-12-04T03:19:02;14.90;;;7.73;;
4053;SDS011;2042;47.956;9.222;2023-12-04T03:21:27;18.17;;;8.07;;
4053;SDS011;2042;47.956;9.222;2023-12-04T03:23:54;10.07;;;7.00;;
4053;SDS011;2042;47.956;9.222;2023-12-04T03:26:19;13.93;;;7.37;;
4053;SDS011;2042;47.956;9.222;2023-12-04T03:28:45;14.10;;;7.03;;
4053;SDS011;2042;47.956;9.222;2023-12-04T03:31:10;10.30;;;7.50;;
4053;SDS011;2042;47.956;9.222;2023-12-04T03:33:36;13.77;;;7.10;;
4053;SDS011;2042;47.956;9.222;2023-12-04T03:36:02;13.83;;;6.10;;
4053;SDS011;2042;47.956;9.222;2023-12-04T03:38:28;14.30;;;8.23;;
4053;SDS011;2042;47.956;9.222;2023-12-04T03:40:53;17.60;;;8.40;;
4053;SDS011;2042;47.956;9.222;2023-12-04T03:43:19;13.37;;;6.20;;
4053;SDS011;2042;47.956;9.222;2023-12-04T03:45:44;14.33;;;7.07;;
4053;SDS011;2042;47.956;9.222;2023-12-04T03:48:10;15.83;;;8.57;;
4053;SDS011;2042;47.956;9.222;2023-12-04T03:50:36;13.87;;;8.90;;
4053;SDS011;2042;47.956;9.222;2023-12-04T03:53:02;15.10;;;9.33;;
4053;SDS011;2042;47.956;9.222;2023-12-04T03:55:28;20.10;;;8.10;;
4053;SDS011;2042;47.956;9.222;2023-12-04T03:57:54;18.20;;;8.50;;
4053;SDS011;2042;47.956;9.222;2023-12-04T04:00:20;21.13;;;8.00;;
4053;SDS011;2042;47.956;9.222;2023-12-04T04:02:46;13.60;;;7.13;;
4053;SDS011;2042;47.956;9.222;2023-12-04T04:05:12;15.80;;;8.00;;
4053;SDS011;2042;47.956;9.222;2023-12-04T04:07:37;16.17;;;8.87;;
4053;SDS011;2042;47.956;9.222;2023-12-04T04:10:04;12.97;;;7.50;;
4053;SDS011;2042;47.956;9.222;2023-12-04T04:12:31;17.10;;;9.10;;
4053;SDS011;2042;47.956;9.222;2023-12-04T04:14:58;17.73;;;8.23;;
4053;SDS011;2042;47.956;9.222;2023-12-04T04:17:23;13.53;;;7.30;;
4053;SDS011;2042;47.956;9.222;2023-12-04T04:19:52;17.13;;;8.90;;
4053;SDS011;2042;47.956;9.222;2023-12-04T04:22:18;17.20;;;8.50;;
4053;SDS011;2042;47.956;9.222;2023-12-04T04:24:45;16.70;;;7.33;;
4053;SDS011;2042;47.956;9.222;2023-12-04T04:27:10;20.80;;;10.37;;
4053;SDS011;2042;47.956;9.222;2023-12-04T04:29:36;16.40;;;8.27;;
4053;SDS011;2042;47.956;9.222;2023-12-04T04:32:01;16.37;;;7.67;;
4053;SDS011;2042;47.956;9.222;2023-12-04T04:34:27;13.50;;;8.13;;
4053;SDS011;2042;47.956;9.222;2023-12-04T04:36:53;17.30;;;7.90;;
4053;SDS011;2042;47.956;9.222;2023-12-04T04:39:18;16.77;;;8.87;;
4053;SDS011;2042;47.956;9.222;2023-12-04T04:41:44;16.80;;;7.83;;
4053;SDS011;2042;47.956;9.222;2023-12-04T04:44:10;16.40;;;8.00;;
4053;SDS011;2042;47.956;9.222;2023-12-04T04:46:35;15.73;;;7.50;;
4053;SDS011;2042;47.956;9.222;2023-12-04T04:49:01;19.37;;;11.03;;
4053;SDS011;2042;47.956;9.222;2023-12-04T04:51:27;16.23;;;8.60;;
4053;SDS011;2042;47.956;9.222;2023-12-04T04:53:55;16.80;;;8.20;;
4053;SDS011;2042;47.956;9.222;2023-12-04T04:56:20;20.67;;;9.40;;
4053;SDS011;2042;47.956;9.222;2023-12-04T04:58:46;14.73;;;7.43;;
4053;SDS011;2042;47.956;9.222;2023-12-04T05:01:11;12.80;;;6.73;;
4053;SDS011;2042;47.956;9.222;2023-12-04T05:03:37;20.87;;;8.63;;
4053;SDS011;2042;47.956;9.222;2023-12-04T05:06:03;20.40;;;8.87;;
4053;SDS011;2042;47.956;9.222;2023-12-04T05:08:29;16.93;;;7.47;;
4053;SDS011;2042;47.956;9.222;2023-12-04T05:10:55;17.40;;;8.00;;
4053;SDS011;2042;47.956;9.222;2023-12-04T05:13:20;13.87;;;7.37;;
4053;SDS011;2042;47.956;9.222;2023-12-04T05:15:46;15.57;;;9.03;;
4053;SDS011;2042;47.956;9.222;2023-12-04T05:18:11;21.50;;;9.07;;
4053;SDS011;2042;47.956;9.222;2023-12-04T05:20:37;21.42;;;10.55;;
4053;SDS011;2042;47.956;9.222;2023-12-04T05:23:03;22.90;;;10.40;;
4053;SDS011;2042;47.956;9.222;2023-12-04T05:25:28;17.40;;;8.10;;
4053;SDS011;2042;47.956;9.222;2023-12-04T05:27:54;20.57;;;8.00;;
4053;SDS011;2042;47.956;9.222;2023-12-04T05:30:19;20.90;;;8.43;;
4053;SDS011;2042;47.956;9.222;2023-12-04T05:32:45;14.87;;;8.70;;
4053;SDS011;2042;47.956;9.222;2023-12-04T05:35:11;17.30;;;9.10;;
4053;SDS011;2042;47.956;9.222;2023-12-04T05:37:36;22.70;;;9.20;;
4053;SDS011;2042;47.956;9.222;2023-12-04T05:40:02;22.20;;;10.73;;
4053;SDS011;2042;47.956;9.222;2023-12-04T05:42:29;17.93;;;8.57;;
4053;SDS011;2042;47.956;9.222;2023-12-04T05:44:55;20.93;;;9.47;;
4053;SDS011;2042;47.956;9.222;2023-12-04T05:47:22;19.23;;;8.87;;
4053;SDS011;2042;47.956;9.222;2023-12-04T05:49:48;16.07;;;8.30;;
4053;SDS011;2042;47.956;9.222;2023-12-04T05:52:13;21.53;;;8.90;;
4053;SDS011;2042;47.956;9.222;2023-12-04T05:54:39;23.00;;;10.80;;
4053;SDS011;2042;47.956;9.222;2023-12-04T05:57:05;22.27;;;10.43;;
4053;SDS011;2042;47.956;9.222;2023-12-04T05:59:31;20.87;;;9.53;;
4053;SDS011;2042;47.956;9.222;2023-12-04T06:01:56;20.00;;;8.80;;
4053;SDS011;2042;47.956;9.222;2023-12-04T06:04:22;19.73;;;9.23;;
4053;SDS011;2042;47.956;9.222;2023-12-04T06:06:48;18.87;;;8.83;;
4053;SDS011;2042;47.956;9.222;2023-12-04T06:09:13;27.43;;;10.23;;
4053;SDS011;2042;47.956;9.222;2023-12-04T06:11:42;24.50;;;11.40;;
4053;SDS011;2042;47.956;9.222;2023-12-04T06:14:08;22.00;;;10.85;;
4053;SDS011;2042;47.956;9.222;2023-12-04T06:16:33;23.20;;;10.30;;
4053;SDS011;2042;47.956;9.222;2023-12-04T06:18:59;19.97;;;9.67;;
4053;SDS011;2042;47.956;9.222;2023-12-04T06:21:25;19.90;;;9.07;;
4053;SDS011;2042;47.956;9.222;2023-12-04T06:23:50;19.50;;;9.97;;
4053;SDS011;2042;47.956;9.222;2023-12-04T06:26:16;28.40;;;13.27;;
4053;SDS011;2042;47.956;9.222;2023-12-04T06:28:43;24.70;;;11.13;;
4053;SDS011;2042;47.956;9.222;2023-12-04T06:31:09;22.20;;;10.80;;
4053;SDS011;2042;47.956;9.222;2023-12-04T06:33:35;23.10;;;10.37;;
4053;SDS011;2042;47.956;9.222;2023-12-04T06:36:01;23.43;;;9.87;;
4053;SDS011;2042;47.956;9.222;2023-12-04T06:38:27;21.53;;;10.60;;
4053;SDS011;2042;47.956;9.222;2023-12-04T06:40:58;25.33;;;12.20;;
4053;SDS011;2042;47.956;9.222;2023-12-04T06:43:24;24.83;;;11.10;;
4053;SDS011;2042;47.956;9.222;2023-12-04T06:45:50;22.50;;;9.37;;
4053;SDS011;2042;47.956;9.222;2023-12-04T06:48:16;23.20;;;10.70;;
4053;SDS011;2042;47.956;9.222;2023-12-04T06:50:42;20.27;;;8.40;;
4053;SDS011;2042;47.956;9.222;2023-12-04T06:53:08;20.93;;;9.57;;
4053;SDS011;2042;47.956;9.222;2023-12-04T06:55:34;19.93;;;10.17;;
4053;SDS011;2042;47.956;9.222;2023-12-04T06:57:59;27.03;;;13.20;;
4053;SDS011;2042;47.956;9.222;2023-12-04T07:00:25;20.90;;;11.43;;
4053;SDS011;2042;47.956;9.222;2023-12-04T07:02:51;25.40;;;11.80;;
4053;SDS011;2042;47.956;9.222;2023-12-04T07:05:17;31.33;;;11.87;;
4053;SDS011;2042;47.956;9.222;2023-12-04T07:07:44;27.20;;;13.10;;
4053;SDS011;2042;47.956;9.222;2023-12-04T07:10:10;31.17;;;11.37;;
4053;SDS011;2042;47.956;9.222;2023-12-04T07:12:39;30.57;;;14.37;;
4053;SDS011;2042;47.956;9.222;2023-12-04T07:15:09;28.73;;;10.80;;
4053;SDS011;2042;47.956;9.222;2023-12-04T07:17:36;22.20;;;8.70;;
4053;SDS011;2042;47.956;9.222;2023-12-04T07:20:02;18.63;;;10.20;;
4053;SDS011;2042;47.956;9.222;2023-12-04T07:22:31;20.20;;;11.70;;
4053;SDS011;2042;47.956;9.222;2023-12-04T07:24:57;27.10;;;11.20;;
4053;SDS011;2042;47.956;9.222;2023-12-04T07:27:22;21.80;;;11.27;;
4053;SDS011;2042;47.956;9.222;2023-12-04T07:29:48;26.03;;;12.30;;
4053;SDS011;2042;47.956;9.222;2023-12-04T07:32:14;23.23;;;10.90;;
4053;SDS011;2042;47.956;9.222;2023-12-04T07:34:39;26.70;;;9.87;;
4053;SDS011;2042;47.956;9.222;2023-12-04T07:37:05;69.77;;;33.10;;
4053;SDS011;2042;47.956;9.222;2023-12-04T07:39:30;25.47;;;11.23;;
4053;SDS011;2042;47.956;9.222;2023-12-04T07:41:56;23.47;;;10.37;;
4053;SDS011;2042;47.956;9.222;2023-12-04T07:44:22;21.60;;;11.60;;
4053;SDS011;2042;47.956;9.222;2023-12-04T07:46:47;31.50;;;10.33;;
4053;SDS011;2042;47.956;9.222;2023-12-04T07:49:13;35.23;;;13.57;;
4053;SDS011;2042;47.956;9.222;2023-12-04T07:51:38;21.87;;;9.73;;
4053;SDS011;2042;47.956;9.222;2023-12-04T07:54:04;22.77;;;13.27;;
4053;SDS011;2042;47.956;9.222;2023-12-04T07:56:30;25.53;;;11.03;;
4053;SDS011;2042;47.956;9.222;2023-12-04T07:58:56;25.97;;;9.43;;
4053;SDS011;2042;47.956;9.222;2023-12-04T08:01:23;31.93;;;11.77;;
4053;SDS011;2042;47.956;9.222;2023-12-04T08:03:49;27.03;;;9.73;;
4053;SDS011;2042;47.956;9.222;2023-12-04T08:06:14;21.67;;;10.03;;
4053;SDS011;2042;47.956;9.222;2023-12-04T08:08:43;20.40;;;10.03;;
4053;SDS011;2042;47.956;9.222;2023-12-04T08:11:09;21.40;;;9.97;;
4053;SDS011;2042;47.956;9.222;2023-12-04T08:13:36;23.57;;;11.00;;
4053;SDS011;2042;47.956;9.222;2023-12-04T08:16:03;24.57;;;11.10;;
4053;SDS011;2042;47.956;9.222;2023-12-04T08:18:29;28.70;;;10.87;;
4053;SDS011;2042;47.956;9.222;2023-12-04T08:20:54;29.30;;;11.97;;
4053;SDS011;2042;47.956;9.222;2023-12-04T08:23:20;29.80;;;10.23;;
4053;SDS011;2042;47.956;9.222;2023-12-04T08:25:46;25.30;;;10.67;;
4053;SDS011;2042;47.956;9.222;2023-12-04T08:28:11;20.33;;;10.07;;
4053;SDS011;2042;47.956;9.222;2023-12-04T08:30:38;35.87;;;12.60;;
4053;SDS011;2042;47.956;9.222;2023-12-04T08:33:04;27.97;;;10.87;;
4053;SDS011;2042;47.956;9.222;2023-12-04T08:35:29;28.80;;;11.63;;
4053;SDS011;2042;47.956;9.222;2023-12-04T08:37:55;25.33;;;10.60;;
4053;SDS011;2042;47.956;9.222;2023-12-04T08:40:20;28.60;;;13.73;;
4053;SDS011;2042;47.956;9.222;2023-12-04T08:42:47;23.17;;;11.40;;
4053;SDS011;2042;47.956;9.222;2023-12-04T08:45:12;26.57;;;11.00;;
4053;SDS011;2042;47.956;9.222;2023-12-04T08:47:38;22.83;;;10.87;;
4053;SDS011;2042;47.956;9.222;2023-12-04T08:50:04;25.70;;;11.50;;
4053;SDS011;2042;47.956;9.222;2023-12-04T08:52:30;18.87;;;9.70;;
4053;SDS011;2042;47.956;9.222;2023-12-04T08:54:56;25.33;;;11.20;;
4053;SDS011;2042;47.956;9.222;2023-12-04T08:57:22;15.50;;;9.87;;
4053;SDS011;2042;47.956;9.222;2023-12-04T08:59:47;23.13;;;10.30;;
4053;SDS011;2042;47.956;9.222;2023-12-04T09:02:13;20.50;;;11.63;;
4053;SDS011;2042;47.956;9.222;2023-12-04T09:04:39;25.73;;;11.93;;
4053;SDS011;2042;47.956;9.222;2023-12-04T09:07:04;27.07;;;11.87;;
4053;SDS011;2042;47.956;9.222;2023-12-04T09:09:31;21.93;;;9.90;;
4053;SDS011;2042;47.956;9.222;2023-12-04T09:11:57;26.77;;;11.63;;
4053;SDS011;2042;47.956;9.222;2023-12-04T09:14:23;27.70;;;12.23;;
4053;SDS011;2042;47.956;9.222;2023-12-04T09:16:48;17.97;;;9.63;;
4053;SDS011;2042;47.956;9.222;2023-12-04T09:19:14;23.47;;;11.03;;
4053;SDS011;2042;47.956;9.222;2023-12-04T09:21:40;22.70;;;11.93;;
4053;SDS011;2042;47.956;9.222;2023-12-04T09:24:05;29.20;;;12.77;;
4053;SDS011;2042;47.956;9.222;2023-12-04T09:26:31;21.13;;;9.87;;
4053;SDS011;2042;47.956;9.222;2023-12-04T09:28:57;19.40;;;9.50;;
4053;SDS011;2042;47.956;9.222;2023-12-04T09:31:22;30.43;;;12.47;;
4053;SDS011;2042;47.956;9.222;2023-12-04T09:33:48;29.17;;;12.10;;
4053;SDS011;2042;47.956;9.222;2023-12-04T09:36:14;23.37;;;11.87;;
4053;SDS011;2042;47.956;9.222;2023-12-04T09:38:39;27.63;;;12.20;;
4053;SDS011;2042;47.956;9.222;2023-12-04T09:41:05;22.92;;;10.73;;
4053;SDS011;2042;47.956;9.222;2023-12-04T09:43:34;27.87;;;12.00;;
4053;SDS011;2042;47.956;9.222;2023-12-04T09:46:00;25.93;;;12.07;;
4053;SDS011;2042;47.956;9.222;2023-12-04T09:48:26;20.43;;;11.27;;
4053;SDS011;2042;47.956;9.222;2023-12-04T09:50:53;26.97;;;11.83;;
4053;SDS011;2042;47.956;9.222;2023-12-04T09:53:19;27.60;;;13.60;;
4053;SDS011;2042;47.956;9.222;2023-12-04T09:55:47;20.47;;;11.20;;
4053;SDS011;2042;47.956;9.222;2023-12-04T09:58:14;20.57;;;10.43;;
4053;SDS011;2042;47.956;9.222;2023-12-04T10:00:41;25.83;;;11.40;;
4053;SDS011;2042;47.956;9.222;2023-12-04T10:03:08;21.03;;;9.30;;
4053;SDS011;2042;47.956;9.222;2023-12-04T10:05:33;24.53;;;13.10;;
4053;SDS011;2042;47.956;9.222;2023-12-04T10:07:59;24.13;;;12.83;;
4053;SDS011;2042;47.956;9.222;2023-12-04T10:10:25;31.77;;;12.70;;
4053;SDS011;2042;47.956;9.222;2023-12-04T10:12:51;26.13;;;12.67;;
4053;SDS011;2042;47.956;9.222;2023-12-04T10:15:17;30.23;;;14.17;;
4053;SDS011;2042;47.956;9.222;2023-12-04T10:17:42;23.87;;;11.77;;
4053;SDS011;2042;47.956;9.222;2023-12-04T10:20:09;26.27;;;10.80;;
4053;SDS011;2042;47.956;9.222;2023-12-04T10:22:37;22.07;;;10.17;;
4053;SDS011;2042;47.956;9.222;2023-12-04T10:25:24;20.73;;;9.87;;
4053;SDS011;2042;47.956;9.222;2023-12-04T10:27:53;24.07;;;13.47;;
4053;SDS011;2042;47.956;9.222;2023-12-04T10:30:23;23.23;;;10.60;;
4053;SDS011;2042;47.956;9.222;2023-12-04T10:33:11;26.00;;;10.77;;
4053;SDS011;2042;47.956;9.222;2023-12-04T10:35:38;22.07;;;10.73;;
4053;SDS011;2042;47.956;9.222;2023-12-04T10:38:05;23.87;;;11.47;;
4053;SDS011;2042;47.956;9.222;2023-12-04T10:40:32;26.80;;;13.67;;
4053;SDS011;2042;47.956;9.222;2023-12-04T10:45:36;21.20;;;11.80;;
4053;SDS011;2042;47.956;9.222;2023-12-04T10:48:03;22.90;;;11.80;;
4053;SDS011;2042;47.956;9.222;2023-12-04T10:50:39;21.80;;;10.43;;
4053;SDS011;2042;47.956;9.222;2023-12-04T10:53:07;27.23;;;13.97;;
4053;SDS011;2042;47.956;9.222;2023-12-04T10:55:34;21.03;;;10.77;;
4053;SDS011;2042;47.956;9.222;2023-12-04T10:58:01;21.77;;;11.10;;
4053;SDS011;2042;47.956;9.222;2023-12-04T11:00:34;18.10;;;9.50;;
4053;SDS011;2042;47.956;9.222;2023-12-04T11:03:05;27.97;;;12.70;;
4053;SDS011;2042;47.956;9.222;2023-12-04T11:05:37;23.40;;;12.27;;
4053;SDS011;2042;47.956;9.222;2023-12-04T11:08:05;19.27;;;11.60;;
4053;SDS011;2042;47.956;9.222;2023-12-04T11:10:38;20.70;;;10.07;;
4053;SDS011;2042;47.956;9.222;2023-12-04T11:13:41;26.53;;;11.17;;
4053;SDS011;2042;47.956;9.222;2023-12-04T11:18:59;30.00;;;11.50;;
4053;SDS011;2042;47.956;9.222;2023-12-04T11:21:29;28.60;;;13.70;;
4053;SDS011;2042;47.956;9.222;2023-12-04T11:23:56;21.80;;;10.27;;
4053;SDS011;2042;47.956;9.222;2023-12-04T11:26:23;24.13;;;12.37;;
4053;SDS011;2042;47.956;9.222;2023-12-04T11:28:50;26.67;;;14.77;;
4053;SDS011;2042;47.956;9.222;2023-12-04T11:31:17;22.30;;;10.93;;
4053;SDS011;2042;47.956;9.222;2023-12-04T11:33:43;23.70;;;11.70;;
4053;SDS011;2042;47.956;9.222;2023-12-04T11:36:10;21.63;;;12.90;;
4053;SDS011;2042;47.956;9.222;2023-12-04T11:38:37;18.90;;;8.80;;
4053;SDS011;2042;47.956;9.222;2023-12-04T11:41:17;21.60;;;11.13;;
4053;SDS011;2042;47.956;9.222;2023-12-04T11:43:45;20.37;;;10.87;;
4053;SDS011;2042;47.956;9.222;2023-12-04T11:46:21;21.13;;;11.90;;
4053;SDS011;2042;47.956;9.222;2023-12-04T11:48:48;20.77;;;10.80;;
4053;SDS011;2042;47.956;9.222;2023-12-04T11:54:13;17.37;;;10.00;;
4053;SDS011;2042;47.956;9.222;2023-12-04T11:56:40;18.73;;;10.13;;
4053;SDS011;2042;47.956;9.222;2023-12-04T11:59:20;21.90;;;10.70;;
4053;SDS011;2042;47.956;9.222;2023-12-04T12:01:48;17.63;;;9.27;;
4053;SDS011;2042;47.956;9.222;2023-12-04T12:04:16;15.40;;;8.70;;
4053;SDS011;2042;47.956;9.222;2023-12-04T12:06:43;13.00;;;7.73;;
4053;SDS011;2042;47.956;9.222;2023-12-04T12:09:09;16.20;;;9.10;;
4053;SDS011;2042;47.956;9.222;2023-12-04T12:11:36;14.10;;;8.10;;
4053;SDS011;2042;47.956;9.222;2023-12-04T12:14:02;15.50;;;9.00;;
4053;SDS011;2042;47.956;9.222;2023-12-04T12:16:30;14.43;;;8.43;;
4053;SDS011;2042;47.956;9.222;2023-12-04T12:18:57;15.77;;;8.80;;
4053;SDS011;2042;47.956;9.222;2023-12-04T12:21:23;16.60;;;8.60;;
4053;SDS011;2042;47.956;9.222;2023-12-04T12:23:50;14.80;;;8.53;;
4053;SDS011;2042;47.956;9.222;2023-12-04T12:26:15;12.40;;;7.53;;
4053;SDS011;2042;47.956;9.222;2023-12-04T12:28:41;15.50;;;8.60;;
4053;SDS011;2042;47.956;9.222;2023-12-04T12:31:07;15.23;;;8.33;;
4053;SDS011;2042;47.956;9.222;2023-12-04T12:33:32;11.40;;;7.73;;
4053;SDS011;2042;47.956;9.222;2023-12-04T12:35:58;12.90;;;7.87;;
4053;SDS011;2042;47.956;9.222;2023-12-04T12:38:25;22.33;;;12.67;;
4053;SDS011;2042;47.956;9.222;2023-12-04T12:40:51;18.90;;;8.67;;
4053;SDS011;2042;47.956;9.222;2023-12-04T12:43:17;14.27;;;7.83;;
4053;SDS011;2042;47.956;9.222;2023-12-04T12:45:48;11.70;;;7.13;;
4053;SDS011;2042;47.956;9.222;2023-12-04T12:48:14;17.73;;;9.60;;
4053;SDS011;2042;47.956;9.222;2023-12-04T12:50:43;10.73;;;7.23;;
4053;SDS011;2042;47.956;9.222;2023-12-04T12:53:12;12.37;;;7.67;;
4053;SDS011;2042;47.956;9.222;2023-12-04T12:55:40;13.57;;;8.53;;
4053;SDS011;2042;47.956;9.222;2023-12-04T12:58:06;18.63;;;10.60;;
4053;SDS011;2042;47.956;9.222;2023-12-04T13:00:32;12.93;;;10.03;;
4053;SDS011;2042;47.956;9.222;2023-12-04T13:03:00;12.87;;;8.30;;
4053;SDS011;2042;47.956;9.222;2023-12-04T13:05:26;11.83;;;7.27;;
4053;SDS011;2042;47.956;9.222;2023-12-04T13:07:52;18.33;;;12.60;;
4053;SDS011;2042;47.956;9.222;2023-12-04T13:10:17;13.17;;;8.00;;
4053;SDS011;2042;47.956;9.222;2023-12-04T13:12:43;10.80;;;7.87;;
4053;SDS011;2042;47.956;9.222;2023-12-04T13:15:09;13.17;;;8.33;;
4053;SDS011;2042;47.956;9.222;2023-12-04T13:17:35;10.70;;;7.30;;
4053;SDS011;2042;47.956;9.222;2023-12-04T13:20:01;11.20;;;6.67;;
4053;SDS011;2042;47.956;9.222;2023-12-04T13:22:29;13.00;;;8.00;;
4053;SDS011;2042;47.956;9.222;2023-12-04T13:24:57;13.63;;;8.20;;
4053;SDS011;2042;47.956;9.222;2023-12-04T13:27:23;10.83;;;7.90;;
4053;SDS011;2042;47.956;9.222;2023-12-04T13:29:49;17.10;;;10.98;;
4053;SDS011;2042;47.956;9.222;2023-12-04T13:32:15;12.00;;;7.37;;
4053;SDS011;2042;47.956;9.222;2023-12-04T13:34:41;13.00;;;8.00;;
4053;SDS011;2042;47.956;9.222;2023-12-04T13:37:07;14.83;;;8.23;;
4053;SDS011;2042;47.956;9.222;2023-12-04T13:39:33;13.00;;;8.40;;
4053;SDS011;2042;47.956;9.222;2023-12-04T13:42:22;11.63;;;6.60;;
4053;SDS011;2042;47.956;9.222;2023-12-04T13:45:06;9.07;;;6.47;;
4053;SDS011;2042;47.956;9.222;2023-12-04T13:47:34;16.03;;;8.33;;
4053;SDS011;2042;47.956;9.222;2023-12-04T13:50:00;17.40;;;8.00;;
4053;SDS011;2042;47.956;9.222;2023-12-04T13:52:26;14.97;;;8.20;;
4053;SDS011;2042;47.956;9.222;2023-12-04T13:54:55;19.07;;;8.67;;
4053;SDS011;2042;47.956;9.222;2023-12-04T13:57:22;14.23;;;8.87;;
4053;SDS011;2042;47.956;9.222;2023-12-04T14:00:00;16.53;;;8.53;;
4053;SDS011;2042;47.956;9.222;2023-12-04T14:02:26;14.90;;;10.03;;
4053;SDS011;2042;47.956;9.222;2023-12-04T14:04:52;14.33;;;7.00;;
4053;SDS011;2042;47.956;9.222;2023-12-04T14:07:18;15.17;;;7.90;;
4053;SDS011;2042;47.956;9.222;2023-12-04T14:09:44;16.80;;;8.07;;
4053;SDS011;2042;47.956;9.222;2023-12-04T14:12:12;19.47;;;8.40;;
4053;SDS011;2042;47.956;9.222;2023-12-04T14:14:41;17.43;;;7.23;;
4053;SDS011;2042;47.956;9.222;2023-12-04T14:17:06;13.80;;;6.90;;
4053;SDS011;2042;47.956;9.222;2023-12-04T14:19:34;16.70;;;9.60;;
4053;SDS011;2042;47.956;9.222;2023-12-04T14:21:59;17.93;;;9.33;;
4053;SDS011;2042;47.956;9.222;2023-12-04T14:24:25;15.40;;;8.30;;
4053;SDS011;2042;47.956;9.222;2023-12-04T14:26:51;15.23;;;9.23;;
4053;SDS011;2042;47.956;9.222;2023-12-04T14:29:18;14.03;;;8.70;;
4053;SDS011;2042;47.956;9.222;2023-12-04T14:31:44;13.93;;;8.97;;
4053;SDS011;2042;47.956;9.222;2023-12-04T14:34:11;17.53;;;8.03;;
4053;SDS011;2042;47.956;9.222;2023-12-04T14:36:36;19.20;;;9.10;;
4053;SDS011;2042;47.956;9.222;2023-12-04T14:39:02;17.00;;;9.37;;
4053;SDS011;2042;47.956;9.222;2023-12-04T14:41:28;15.10;;;9.43;;
4053;SDS011;2042;47.956;9.222;2023-12-04T14:43:54;16.47;;;9.83;;
4053;SDS011;2042;47.956;9.222;2023-12-04T14:46:20;15.00;;;8.50;;
4053;SDS011;2042;47.956;9.222;2023-12-04T14:48:46;13.70;;;7.40;;
4053;SDS011;2042;47.956;9.222;2023-12-04T14:51:11;28.57;;;13.90;;
4053;SDS011;2042;47.956;9.222;2023-12-04T14:53:40;16.77;;;8.60;;
4053;SDS011;2042;47.956;9.222;2023-12-04T14:56:16;19.13;;;8.60;;
4053;SDS011;2042;47.956;9.222;2023-12-04T14:59:00;22.07;;;8.70;;
4053;SDS011;2042;47.956;9.222;2023-12-04T15:02:04;14.70;;;6.97;;
4053;SDS011;2042;47.956;9.222;2023-12-04T15:04:48;18.30;;;9.33;;